createdAt,value
2023-01-08T00:00:21.378Z,29.08
2023-01-08T00:05:43.276Z,30.05
2023-01-08T00:11:05.253Z,26.13
2023-01-08T00:16:27.936Z,28.92
2023-01-08T00:21:49.835Z,26.45
2023-01-08T00:27:11.687Z,26.70
2023-01-08T00:32:33.523Z,25.95
2023-01-08T00:37:55.327Z,27.58
2023-01-08T00:43:17.163Z,26.73
2023-01-08T00:48:39.248Z,21.30
2023-01-08T00:54:01.136Z,26.50
2023-01-08T00:59:23.112Z,25.45
2023-01-08T01:04:44.910Z,25.08
2023-01-08T01:10:07.392Z,24.70
2023-01-08T01:15:29.246Z,23.38
2023-01-08T01:20:51.144Z,24.38
2023-01-08T01:26:20.946Z,24.95
2023-01-08T01:31:42.826Z,22.23
2023-01-08T01:37:04.691Z,22.38
2023-01-08T01:42:26.565Z,21.77
2023-01-08T01:48:02.212Z,21.10
2023-01-08T01:53:29.944Z,20.67
2023-01-08T01:58:51.752Z,20.33
2023-01-08T02:04:14.585Z,20.65
2023-01-08T02:09:48.413Z,20.13
2023-01-08T02:15:16.266Z,20.58
2023-01-08T02:20:43.942Z,19.58
2023-01-08T02:26:27.744Z,18.60
2023-01-08T02:31:50.152Z,17.23
2023-01-08T02:37:12.075Z,14.45
2023-01-08T02:42:55.839Z,14.50
2023-01-08T02:48:43.248Z,15.38
2023-01-08T02:54:09.595Z,15.27
2023-01-08T02:59:34.039Z,13.85
2023-01-08T03:05:03.571Z,14.13
2023-01-08T03:10:27.466Z,14.65
2023-01-08T03:15:56.334Z,14.20
2023-01-08T03:21:20.767Z,13.27
2023-01-08T03:26:45.567Z,12.38
2023-01-08T03:32:13.824Z,11.07
2023-01-08T03:37:40.717Z,12.25
2023-01-08T03:43:02.758Z,12.18
2023-01-08T03:48:27.226Z,10.45
2023-01-08T03:53:52.328Z,11.43
2023-01-08T03:59:15.366Z,9.65
2023-01-08T04:04:37.233Z,11.70
2023-01-08T04:09:59.065Z,10.68
2023-01-08T04:15:21.172Z,11.23
2023-01-08T04:20:47.620Z,10.85
2023-01-08T04:31:31.668Z,10.23
2023-01-08T04:36:53.547Z,10.40
2023-01-08T04:42:15.413Z,11.27
2023-01-08T04:47:37.245Z,10.88
2023-01-08T04:52:59.392Z,10.88
2023-01-08T04:58:21.694Z,10.25
2023-01-08T05:03:43.514Z,10.85
2023-01-08T05:09:05.374Z,9.00
2023-01-08T05:14:27.235Z,9.48
2023-01-08T05:19:49.040Z,10.23
2023-01-08T05:25:10.952Z,8.55
2023-01-08T05:30:32.768Z,9.75
2023-01-08T05:35:54.757Z,9.52
2023-01-08T05:41:16.586Z,10.23
2023-01-08T05:46:38.473Z,11.02
2023-01-08T05:52:00.331Z,9.23
2023-01-08T05:57:22.162Z,10.90
2023-01-08T06:02:48.263Z,10.27
2023-01-08T06:08:10.222Z,11.40
2023-01-08T06:13:33.450Z,9.80
2023-01-08T06:18:55.323Z,10.48
2023-01-08T06:24:17.193Z,10.32
2023-01-08T06:29:39.038Z,8.35
2023-01-08T06:35:00.833Z,9.57
2023-01-08T06:40:23.891Z,9.60
2023-01-08T06:45:45.691Z,9.65
2023-01-08T06:51:07.588Z,9.65
2023-01-08T06:56:29.472Z,10.60
2023-01-08T07:01:51.586Z,10.07
2023-01-08T07:07:14.672Z,11.45
2023-01-08T07:12:36.548Z,11.02
2023-01-08T07:17:58.365Z,12.38
2023-01-08T07:23:20.219Z,11.60
2023-01-08T07:28:42.257Z,11.55
2023-01-08T07:34:04.106Z,10.73
2023-01-08T07:39:25.942Z,11.73
2023-01-08T07:44:47.764Z,11.48
2023-01-08T07:50:09.776Z,10.63
2023-01-08T07:55:31.747Z,12.05
2023-01-08T08:00:53.974Z,12.00
2023-01-08T08:06:15.804Z,12.57
2023-01-08T08:11:37.656Z,12.30
2023-01-08T08:17:00.959Z,12.18
2023-01-08T08:22:22.894Z,12.43
2023-01-08T08:27:45.145Z,13.40
2023-01-08T08:33:07.251Z,13.57
2023-01-08T08:38:29.063Z,11.00
2023-01-08T08:43:50.914Z,13.27
2023-01-08T08:49:12.752Z,14.25
2023-01-08T08:54:34.674Z,12.27
2023-01-08T08:59:56.543Z,11.57
2023-01-08T09:05:18.423Z,13.90
2023-01-08T09:10:40.824Z,11.57
2023-01-08T09:16:02.780Z,12.73
2023-01-08T09:21:24.690Z,12.98
2023-01-08T09:26:46.534Z,14.07
2023-01-08T09:32:08.765Z,12.95
2023-01-08T09:37:30.772Z,12.88
2023-01-08T09:43:00.197Z,12.52
2023-01-08T09:48:28.441Z,14.50
2023-01-08T09:53:55.548Z,12.88
2023-01-08T09:59:18.402Z,12.88
2023-01-08T10:04:41.539Z,12.75
2023-01-08T10:10:03.566Z,13.00
2023-01-08T10:15:26.127Z,12.32
2023-01-08T10:20:47.997Z,13.40
2023-01-08T10:26:09.804Z,14.43
2023-01-08T10:31:32.421Z,14.77
2023-01-08T10:36:55.145Z,15.05
2023-01-08T10:42:19.447Z,15.50
2023-01-08T10:47:47.934Z,15.82
2023-01-08T10:53:28.837Z,17.70
2023-01-08T10:58:51.486Z,16.45
2023-01-08T11:04:23.916Z,16.17
2023-01-08T11:09:48.405Z,13.88
2023-01-08T11:15:16.177Z,16.30
2023-01-08T11:20:39.128Z,14.18
2023-01-08T11:26:04.111Z,17.52
2023-01-08T11:31:39.965Z,13.73
2023-01-08T11:37:11.602Z,16.27
2023-01-08T11:42:59.365Z,16.10
2023-01-08T11:48:34.150Z,14.93
2023-01-08T11:54:14.513Z,16.00
2023-01-08T11:59:36.328Z,16.17
2023-01-08T12:05:04.033Z,14.57
2023-01-08T12:10:49.561Z,15.13
2023-01-08T12:16:35.559Z,14.87
2023-01-08T12:22:09.448Z,13.85
2023-01-08T12:28:22.112Z,15.45
2023-01-08T12:33:56.124Z,14.45
2023-01-08T12:39:27.012Z,15.27
2023-01-08T12:44:48.893Z,15.75
2023-01-08T12:50:21.420Z,14.52
2023-01-08T12:56:02.888Z,15.95
2023-01-08T13:01:27.834Z,16.08
2023-01-08T13:07:18.376Z,15.98
2023-01-08T13:12:41.121Z,18.00
2023-01-08T13:18:15.751Z,18.42
2023-01-08T13:23:37.648Z,18.48
2023-01-08T13:29:39.280Z,18.17
2023-01-08T13:35:12.788Z,18.40
2023-01-08T13:40:44.721Z,19.48
2023-01-08T13:46:17.924Z,18.65
2023-01-08T13:51:43.409Z,19.08
2023-01-08T13:57:17.208Z,18.02
2023-01-08T14:02:46.506Z,18.20
2023-01-08T14:08:21.936Z,19.05
2023-01-08T14:13:44.200Z,18.77
2023-01-08T14:19:06.341Z,21.25
2023-01-08T14:24:28.442Z,20.33
2023-01-08T14:29:50.428Z,19.90
2023-01-08T14:35:17.711Z,19.40
2023-01-08T14:40:43.579Z,18.80
2023-01-08T14:46:27.624Z,20.60
2023-01-08T14:51:51.308Z,20.38
2023-01-08T14:57:14.511Z,21.60
2023-01-08T15:02:37.890Z,20.67
2023-01-08T15:08:24.256Z,21.90
2023-01-08T15:13:48.068Z,20.33
2023-01-08T15:19:18.274Z,18.48
2023-01-08T15:24:40.141Z,18.40
2023-01-08T15:30:02.750Z,19.38
2023-01-08T15:35:24.603Z,19.05
2023-01-08T15:40:47.212Z,20.40
2023-01-08T15:46:11.665Z,19.23
2023-01-08T15:51:35.890Z,21.05
2023-01-08T15:56:57.756Z,17.23
2023-01-08T16:02:19.815Z,20.50
2023-01-08T16:07:41.799Z,20.25
2023-01-08T16:13:04.420Z,18.77
2023-01-08T16:18:26.301Z,16.45
2023-01-08T16:23:48.160Z,20.17
2023-01-08T16:29:10.030Z,19.88
2023-01-08T16:34:31.882Z,19.55
2023-01-08T16:39:53.757Z,19.23
2023-01-08T16:45:15.659Z,18.83
2023-01-08T16:50:37.505Z,20.45
2023-01-08T16:55:59.990Z,19.55
2023-01-08T17:01:22.157Z,21.13
2023-01-08T17:06:44.127Z,19.60
2023-01-08T17:12:06.336Z,19.75
2023-01-08T17:17:28.175Z,19.25
2023-01-08T17:22:50.042Z,21.00
2023-01-08T17:28:11.889Z,20.60
2023-01-08T17:33:34.612Z,21.05
2023-01-08T17:38:56.493Z,20.60
2023-01-08T17:44:18.354Z,20.48
2023-01-08T17:49:40.244Z,20.52
2023-01-08T17:55:02.195Z,20.67
2023-01-08T18:00:24.064Z,20.45
2023-01-08T18:05:45.898Z,18.70
2023-01-08T18:11:09.518Z,19.63
2023-01-08T18:16:32.879Z,21.75
2023-01-08T18:21:54.701Z,29.10
2023-01-08T18:27:16.571Z,21.42
2023-01-08T18:32:38.487Z,22.33
2023-01-08T18:38:00.331Z,22.40
2023-01-08T18:43:22.211Z,23.20
2023-01-08T18:48:44.065Z,23.65
2023-01-08T18:54:06.106Z,24.10
2023-01-08T18:59:28.234Z,23.02
2023-01-08T19:04:52.299Z,25.20
2023-01-08T19:10:14.731Z,25.15
2023-01-08T19:15:36.841Z,24.45
2023-01-08T19:21:00.089Z,26.95
2023-01-08T19:26:22.302Z,25.17
2023-01-08T19:31:44.244Z,24.75
2023-01-08T19:37:06.189Z,23.05
2023-01-08T19:42:28.858Z,25.92
2023-01-08T19:47:51.449Z,24.70
2023-01-08T19:53:15.459Z,24.15
2023-01-08T19:58:37.699Z,25.45
2023-01-08T20:03:59.622Z,25.00
2023-01-08T20:09:22.231Z,23.35
2023-01-08T20:14:44.087Z,25.75
2023-01-08T20:20:06.758Z,23.45
2023-01-08T20:25:28.856Z,32.67
2023-01-08T20:30:51.095Z,25.92
2023-01-08T20:36:14.431Z,28.92
2023-01-08T20:41:36.328Z,27.08
2023-01-08T20:46:58.180Z,26.10
2023-01-08T20:52:20.369Z,27.33
2023-01-08T20:57:42.508Z,24.38
2023-01-08T21:03:04.356Z,27.58
2023-01-08T21:08:26.299Z,27.75
2023-01-08T21:13:48.207Z,29.95
2023-01-08T21:19:10.605Z,29.13
2023-01-08T21:24:32.532Z,27.25
2023-01-08T21:29:54.426Z,31.02
2023-01-08T21:35:16.399Z,28.05
2023-01-08T21:40:38.860Z,28.52
2023-01-08T21:46:01.745Z,27.45
2023-01-08T21:51:23.623Z,27.38
2023-01-08T21:56:45.510Z,28.20
2023-01-08T22:02:07.678Z,27.13
2023-01-08T22:07:29.648Z,28.67
2023-01-08T22:12:51.501Z,35.13
2023-01-08T22:18:13.698Z,30.50
2023-01-08T22:23:36.360Z,29.17
2023-01-08T22:28:58.228Z,29.20
2023-01-08T22:34:20.100Z,30.58
2023-01-08T22:39:41.913Z,28.73
2023-01-08T22:45:04.276Z,28.70
2023-01-08T22:50:26.187Z,31.83
2023-01-08T22:55:48.137Z,27.88
2023-01-08T23:01:12.212Z,32.22
2023-01-08T23:06:34.476Z,31.60
2023-01-08T23:11:56.296Z,29.63
2023-01-08T23:17:18.115Z,31.98
2023-01-08T23:22:40.366Z,30.30
2023-01-08T23:28:02.236Z,30.55
2023-01-08T23:33:24.093Z,29.15
2023-01-08T23:38:47.254Z,27.83
2023-01-08T23:44:13.967Z,31.33
2023-01-08T23:49:35.816Z,30.58
2023-01-08T23:54:57.638Z,28.33
